Hillandale, Maryland
Current Conditions -  °F | °C
As of 4:35 PM on Saturday 22 Nov 2014 (Local Time) from KCGS Reporting Station
Broken Clouds Broken Clouds  
Wind Chill: 46°   Ceiling: 10000
Heat Index: 48°   Visibility: 10mi
Dew Point: 16°   Wind: 5mph
Humidity: 27%   Direction: 190°S
Pressure: 30.31"   Gusts: NA
Location:  39.0169°N, 76.9848°W
Report Text: KCGS 222135Z AUTO 19004KT 10SM BKN100 09/M09 A3031 RMK AO1
Loading
Personal Weather Stations






























Interactive Weather Map New forecast layout! Learn more

10-Day Weather Forecast

Advertisements
Track Severe Weather on mobile